createdAt,value
2022-11-16T00:02:22.618Z,47.88
2022-11-16T00:04:49.395Z,43.53
2022-11-16T00:07:16.193Z,46.15
2022-11-16T00:09:42.939Z,44.72
2022-11-16T00:12:11.248Z,48.60
2022-11-16T00:14:38.022Z,47.42
2022-11-16T00:17:05.105Z,46.38
2022-11-16T00:19:31.958Z,47.55
2022-11-16T00:21:59.071Z,47.03
2022-11-16T00:24:25.754Z,45.45
2022-11-16T00:26:54.421Z,46.00
2022-11-16T00:29:23.416Z,47.15
2022-11-16T00:31:54.098Z,48.40
2022-11-16T00:34:22.110Z,46.40
2022-11-16T00:36:48.913Z,49.33
2022-11-16T00:39:16.592Z,48.30
2022-11-16T00:41:45.705Z,48.72
2022-11-16T00:44:12.532Z,47.05
2022-11-16T00:46:39.731Z,46.25
2022-11-16T00:49:06.796Z,43.38
2022-11-16T00:51:34.722Z,45.72
2022-11-16T00:54:02.235Z,47.33
2022-11-16T00:56:29.626Z,47.53
2022-11-16T00:58:56.456Z,47.25
2022-11-16T01:01:23.302Z,46.33
2022-11-16T01:03:51.038Z,47.03
2022-11-16T01:06:20.403Z,45.40
2022-11-16T01:08:47.323Z,43.97
2022-11-16T01:11:34.049Z,46.05
2022-11-16T01:14:03.552Z,46.15
2022-11-16T01:16:30.704Z,46.20
2022-11-16T01:18:57.559Z,44.00
2022-11-16T01:21:25.292Z,45.85
2022-11-16T01:23:52.159Z,42.92
2022-11-16T01:26:19.115Z,47.83
2022-11-16T01:28:45.861Z,44.95
2022-11-16T01:31:13.333Z,46.33
2022-11-16T01:33:41.285Z,47.63
2022-11-16T01:36:17.492Z,43.67
2022-11-16T01:38:45.866Z,46.53
2022-11-16T01:41:21.057Z,42.58
2022-11-16T01:44:06.040Z,42.88
2022-11-16T01:46:44.337Z,45.13
2022-11-16T01:49:15.971Z,45.78
2022-11-16T01:51:44.811Z,46.33
2022-11-16T01:54:13.471Z,44.80
2022-11-16T01:56:51.107Z,44.13
2022-11-16T01:59:29.535Z,41.92
2022-11-16T02:01:59.866Z,45.08
2022-11-16T02:04:26.975Z,40.88
2022-11-16T02:07:04.817Z,43.47
2022-11-16T02:09:59.015Z,42.83
2022-11-16T02:12:54.696Z,42.60
2022-11-16T02:15:36.702Z,42.95
2022-11-16T02:18:22.747Z,43.38
2022-11-16T02:21:06.600Z,45.40
2022-11-16T02:23:43.446Z,42.45
2022-11-16T02:26:44.109Z,45.38
2022-11-16T02:29:30.428Z,45.00
2022-11-16T02:32:11.713Z,44.97
2022-11-16T02:34:42.378Z,43.60
2022-11-16T02:37:11.438Z,48.22
2022-11-16T02:39:39.220Z,44.70
2022-11-16T02:42:10.859Z,43.17
2022-11-16T02:44:43.501Z,46.50
2022-11-16T02:47:13.890Z,38.58
2022-11-16T02:49:45.816Z,39.92
2022-11-16T02:52:15.308Z,41.67
2022-11-16T02:54:42.512Z,40.22
2022-11-16T02:57:09.493Z,41.78
2022-11-16T02:59:43.498Z,41.17
2022-11-16T03:02:53.865Z,40.85
2022-11-16T03:05:34.632Z,40.08
2022-11-16T03:08:32.743Z,40.95
2022-11-16T03:11:24.137Z,41.30
2022-11-16T03:13:56.471Z,41.03
2022-11-16T03:16:26.951Z,44.75
2022-11-16T03:18:55.964Z,40.88
2022-11-16T03:21:49.930Z,49.83
2022-11-16T03:24:18.254Z,39.67
2022-11-16T03:27:26.511Z,41.30
2022-11-16T03:30:00.420Z,41.00
2022-11-16T03:32:33.884Z,42.08
2022-11-16T03:35:11.283Z,43.13
2022-11-16T03:37:38.951Z,45.45
2022-11-16T03:40:06.856Z,45.53
2022-11-16T03:42:34.834Z,43.47
2022-11-16T03:45:02.261Z,45.95
2022-11-16T03:47:29.030Z,47.75
2022-11-16T03:49:55.837Z,45.88
2022-11-16T03:52:24.106Z,46.28
2022-11-16T03:54:51.256Z,44.95
2022-11-16T03:57:18.766Z,44.08
2022-11-16T03:59:51.597Z,45.60
2022-11-16T04:02:18.408Z,42.05
2022-11-16T04:05:04.208Z,48.85
2022-11-16T04:07:49.570Z,44.47
2022-11-16T04:10:35.018Z,41.95
2022-11-16T04:13:22.422Z,48.97
2022-11-16T04:16:08.694Z,44.97
2022-11-16T04:18:54.069Z,45.30
2022-11-16T04:21:45.387Z,44.22
2022-11-16T04:24:17.821Z,45.10
2022-11-16T04:27:06.872Z,47.25
2022-11-16T04:29:34.203Z,48.17
2022-11-16T04:32:19.576Z,46.90
2022-11-16T04:35:05.008Z,48.75
2022-11-16T04:37:50.302Z,52.33
2022-11-16T04:40:24.303Z,51.25
2022-11-16T04:43:09.232Z,52.22
2022-11-16T04:45:58.070Z,52.03
2022-11-16T04:48:30.287Z,58.47
2022-11-16T04:50:57.067Z,56.67
2022-11-16T04:53:27.224Z,57.03
2022-11-16T04:56:23.424Z,60.03
2022-11-16T04:58:50.305Z,58.55
2022-11-16T05:01:17.245Z,60.58
2022-11-16T05:03:44.139Z,58.92
2022-11-16T05:06:10.887Z,64.85
2022-11-16T05:08:37.712Z,63.38
2022-11-16T05:11:05.527Z,63.55
2022-11-16T05:13:32.786Z,61.42
2022-11-16T05:16:00.563Z,65.88
2022-11-16T05:18:27.354Z,63.35
2022-11-16T05:21:03.285Z,69.72
2022-11-16T05:23:54.286Z,68.03
2022-11-16T05:26:23.169Z,65.95
2022-11-16T05:28:51.105Z,74.40
2022-11-16T05:31:18.164Z,68.53
2022-11-16T05:33:45.255Z,69.35
2022-11-16T05:36:14.662Z,68.47
2022-11-16T05:38:41.511Z,70.75
2022-11-16T05:41:08.366Z,71.45
2022-11-16T05:43:35.141Z,76.00
2022-11-16T05:46:11.117Z,69.97
2022-11-16T05:48:38.800Z,70.95
2022-11-16T05:51:06.438Z,75.93
2022-11-16T05:53:34.475Z,70.60
2022-11-16T05:56:01.269Z,72.15
2022-11-16T05:58:29.245Z,73.97
2022-11-16T06:00:58.362Z,74.25
2022-11-16T06:03:25.319Z,78.85
2022-11-16T06:05:55.316Z,72.22
2022-11-16T06:08:24.918Z,77.00
2022-11-16T06:10:53.444Z,73.20
2022-11-16T06:13:20.445Z,73.93
2022-11-16T06:15:52.989Z,76.63
2022-11-16T06:18:19.895Z,79.43
2022-11-16T06:20:48.431Z,72.10
2022-11-16T06:23:15.309Z,72.97
2022-11-16T06:25:42.262Z,74.00
2022-11-16T06:28:09.783Z,66.72
2022-11-16T06:30:38.370Z,76.03
2022-11-16T06:33:06.655Z,68.13
2022-11-16T06:35:33.524Z,77.88
2022-11-16T06:38:00.850Z,73.45
2022-11-16T06:40:27.626Z,79.45
2022-11-16T06:42:54.394Z,70.93
2022-11-16T06:45:21.641Z,75.53
2022-11-16T06:47:52.990Z,80.55
2022-11-16T06:50:19.956Z,77.32
2022-11-16T06:52:48.279Z,77.18
2022-11-16T06:55:16.250Z,78.25
2022-11-16T06:57:43.257Z,75.63
2022-11-16T07:00:11.526Z,80.78
2022-11-16T07:02:39.400Z,79.10
2022-11-16T07:05:09.658Z,84.57
2022-11-16T07:07:36.830Z,81.40
2022-11-16T07:10:04.332Z,85.53
2022-11-16T07:12:32.472Z,89.00
2022-11-16T07:15:00.600Z,86.80
2022-11-16T07:17:29.999Z,81.13
2022-11-16T07:19:59.178Z,88.78
2022-11-16T07:22:26.156Z,86.50
2022-11-16T07:24:53.756Z,88.20
2022-11-16T07:27:21.397Z,85.63
2022-11-16T07:29:50.669Z,86.32
2022-11-16T07:32:36.077Z,86.63
2022-11-16T07:35:29.278Z,85.93
2022-11-16T07:37:56.260Z,86.43
2022-11-16T07:40:23.099Z,96.65
2022-11-16T07:42:50.125Z,89.50
2022-11-16T07:45:46.122Z,88.90
2022-11-16T07:48:12.938Z,89.63
2022-11-16T07:51:14.028Z,91.53
2022-11-16T07:53:47.035Z,88.63
2022-11-16T07:56:13.737Z,96.43
2022-11-16T07:58:41.802Z,90.90
2022-11-16T08:01:15.253Z,84.80
2022-11-16T08:03:44.459Z,88.93
2022-11-16T08:06:32.480Z,92.47
2022-11-16T08:08:59.733Z,96.18
2022-11-16T08:11:28.570Z,86.63
2022-11-16T08:13:57.162Z,91.85
2022-11-16T08:16:24.696Z,98.05
2022-11-16T08:19:00.976Z,95.28
2022-11-16T08:21:27.930Z,95.30
2022-11-16T08:23:58.335Z,90.13
2022-11-16T08:26:26.128Z,86.07
2022-11-16T08:28:58.581Z,86.15
2022-11-16T08:31:30.209Z,82.93
2022-11-16T08:34:08.003Z,91.85
2022-11-16T08:36:36.459Z,89.72
2022-11-16T08:39:03.810Z,83.22
2022-11-16T08:41:32.218Z,94.00
2022-11-16T08:44:01.258Z,91.05
2022-11-16T08:46:30.093Z,90.97
2022-11-16T08:49:07.237Z,90.72
2022-11-16T08:51:34.269Z,91.85
2022-11-16T08:54:05.388Z,92.95
2022-11-16T08:56:35.352Z,95.90
2022-11-16T08:59:05.231Z,99.80
2022-11-16T09:01:33.062Z,90.03
2022-11-16T09:04:01.575Z,90.80
2022-11-16T09:06:29.439Z,90.63
2022-11-16T09:08:58.743Z,91.68
2022-11-16T09:11:28.408Z,88.22
2022-11-16T09:13:56.182Z,85.40
2022-11-16T09:16:23.782Z,85.28
2022-11-16T09:18:51.459Z,89.13
2022-11-16T09:21:20.576Z,77.63
2022-11-16T09:23:48.219Z,84.55
2022-11-16T09:26:15.434Z,86.28
2022-11-16T09:28:42.860Z,82.75
2022-11-16T09:31:10.389Z,81.65
2022-11-16T09:33:37.427Z,82.78
2022-11-16T09:36:07.372Z,81.50
2022-11-16T09:39:03.315Z,79.45
2022-11-16T09:41:37.423Z,78.53
2022-11-16T09:44:08.206Z,81.88
2022-11-16T09:46:38.759Z,77.00
2022-11-16T09:49:19.993Z,74.70
2022-11-16T09:51:53.751Z,75.00
2022-11-16T09:54:23.172Z,73.97
2022-11-16T09:56:52.859Z,70.82
2022-11-16T09:59:28.971Z,69.53
2022-11-16T10:01:58.724Z,65.70
2022-11-16T10:04:28.471Z,70.40
2022-11-16T10:07:02.059Z,62.85
2022-11-16T10:09:29.759Z,61.70
2022-11-16T10:12:28.928Z,58.63
2022-11-16T10:15:23.728Z,57.08
2022-11-16T10:18:02.678Z,55.53
2022-11-16T10:20:58.252Z,51.90
2022-11-16T10:23:50.949Z,40.35
2022-11-16T10:26:28.644Z,41.65
2022-11-16T10:29:05.309Z,34.60
2022-11-16T10:31:48.787Z,35.45
2022-11-16T10:34:23.654Z,35.08
2022-11-16T10:36:50.708Z,36.85
2022-11-16T10:39:20.288Z,34.00
2022-11-16T10:41:50.851Z,32.45
2022-11-16T10:44:33.735Z,31.83
2022-11-16T10:47:06.638Z,26.58
2022-11-16T10:49:37.872Z,29.95
2022-11-16T10:52:05.028Z,29.02
2022-11-16T10:54:31.777Z,26.75
2022-11-16T10:57:05.241Z,30.40
2022-11-16T10:59:42.060Z,28.73
2022-11-16T11:02:34.897Z,31.15
2022-11-16T11:05:03.514Z,33.60
2022-11-16T11:07:32.977Z,29.80
2022-11-16T11:09:59.904Z,26.88
2022-11-16T11:12:39.872Z,29.77
2022-11-16T11:15:13.510Z,32.90
2022-11-16T11:17:47.301Z,28.88
2022-11-16T11:20:17.272Z,33.08
2022-11-16T11:22:56.146Z,32.13
2022-11-16T11:25:30.362Z,35.60
2022-11-16T11:28:22.246Z,34.33
2022-11-16T11:31:30.430Z,32.63
2022-11-16T11:34:05.415Z,36.90
2022-11-16T11:36:43.548Z,30.73
2022-11-16T11:39:13.489Z,34.10
2022-11-16T11:41:44.649Z,39.72
2022-11-16T11:44:18.282Z,38.05
2022-11-16T11:47:42.755Z,33.58
2022-11-16T11:49:42.494Z,38.65
2022-11-16T11:52:19.030Z,32.33
2022-11-16T11:54:49.583Z,34.83
2022-11-16T11:57:22.275Z,35.65
2022-11-16T11:59:51.002Z,38.50
2022-11-16T12:02:46.470Z,35.60
2022-11-16T12:05:29.617Z,34.55
2022-11-16T12:08:04.773Z,33.67
2022-11-16T12:10:40.607Z,33.58
2022-11-16T12:13:16.677Z,32.80
2022-11-16T12:15:49.769Z,29.85
2022-11-16T12:19:01.568Z,33.70
2022-11-16T12:21:50.838Z,31.83
2022-11-16T12:24:23.597Z,30.90
2022-11-16T12:27:07.451Z,32.92
2022-11-16T12:30:01.312Z,30.23
2022-11-16T12:32:36.944Z,27.83
2022-11-16T12:35:25.334Z,31.73
2022-11-16T12:38:15.271Z,31.67
2022-11-16T12:40:55.917Z,28.65
2022-11-16T12:43:43.953Z,32.10
2022-11-16T12:46:42.745Z,31.30
2022-11-16T12:49:24.484Z,28.88
2022-11-16T12:52:06.494Z,34.13
2022-11-16T12:55:28.213Z,32.17
2022-11-16T12:58:20.841Z,32.40
2022-11-16T13:01:16.158Z,34.17
2022-11-16T13:03:50.136Z,29.50
2022-11-16T13:06:21.905Z,29.35
2022-11-16T13:09:06.875Z,28.27
2022-11-16T13:11:47.438Z,36.20
2022-11-16T13:14:19.858Z,31.10
2022-11-16T13:16:48.088Z,34.88
2022-11-16T13:19:16.113Z,36.13
2022-11-16T13:21:51.977Z,33.35
2022-11-16T13:24:30.812Z,30.92
2022-11-16T13:27:13.038Z,33.67
2022-11-16T13:30:05.290Z,35.30
2022-11-16T13:32:48.467Z,32.88
2022-11-16T13:35:17.057Z,31.67
2022-11-16T13:37:45.481Z,37.53
2022-11-16T13:40:25.115Z,30.25
2022-11-16T13:43:02.433Z,32.10
2022-11-16T13:45:40.350Z,32.03
2022-11-16T13:48:20.215Z,32.10
2022-11-16T13:50:50.210Z,29.60
2022-11-16T13:56:24.158Z,30.27
2022-11-16T13:58:55.982Z,31.38
2022-11-16T14:01:24.106Z,33.13
2022-11-16T14:03:52.122Z,32.63
2022-11-16T14:06:25.113Z,29.80
2022-11-16T14:08:55.733Z,33.45
2022-11-16T14:11:37.431Z,32.50
2022-11-16T14:14:42.387Z,30.67
2022-11-16T14:17:09.074Z,30.90
2022-11-16T14:19:47.627Z,27.40
2022-11-16T14:22:36.483Z,28.02
2022-11-16T14:25:16.663Z,25.85
2022-11-16T14:27:52.133Z,29.95
2022-11-16T14:30:28.945Z,29.00
2022-11-16T14:32:56.578Z,24.73
2022-11-16T14:35:30.410Z,31.30
2022-11-16T14:37:58.841Z,27.83
2022-11-16T14:40:25.799Z,24.88
2022-11-16T14:46:01.098Z,23.42
2022-11-16T14:48:30.758Z,24.55
2022-11-16T14:51:21.273Z,24.98
2022-11-16T14:53:50.776Z,23.58
2022-11-16T14:56:21.885Z,22.45
2022-11-16T14:59:17.571Z,23.05
2022-11-16T15:01:44.917Z,27.13
2022-11-16T15:04:16.743Z,20.42
2022-11-16T15:06:50.162Z,23.33
2022-11-16T15:09:22.018Z,18.73
2022-11-16T15:12:08.639Z,22.08
2022-11-16T15:14:40.502Z,25.33
2022-11-16T15:17:09.149Z,21.58
2022-11-16T15:19:36.402Z,22.83
2022-11-16T15:22:04.726Z,24.35
2022-11-16T15:24:33.557Z,22.15
2022-11-16T15:27:19.156Z,22.10
2022-11-16T15:29:46.097Z,23.27
2022-11-16T15:32:15.973Z,22.45
2022-11-16T15:34:47.694Z,22.75
2022-11-16T15:37:15.458Z,22.80
2022-11-16T15:39:43.024Z,25.20
2022-11-16T15:42:14.044Z,25.88
2022-11-16T15:44:41.342Z,23.65
2022-11-16T15:47:10.490Z,23.10
2022-11-16T15:49:38.471Z,24.27
2022-11-16T15:52:05.952Z,28.25
2022-11-16T15:54:52.758Z,24.27
2022-11-16T15:57:20.868Z,25.42
2022-11-16T15:59:54.789Z,28.20
2022-11-16T16:02:23.257Z,22.17
2022-11-16T16:04:50.175Z,23.90
2022-11-16T16:07:39.919Z,26.38
2022-11-16T16:10:24.005Z,24.20
2022-11-16T16:13:01.277Z,27.42
2022-11-16T16:15:34.228Z,26.52
2022-11-16T16:18:02.531Z,25.38
2022-11-16T16:20:31.501Z,26.42
2022-11-16T16:23:16.609Z,25.38
2022-11-16T16:25:49.010Z,24.38
2022-11-16T16:28:16.972Z,27.23
2022-11-16T16:30:44.038Z,24.88
2022-11-16T16:33:18.744Z,22.40
2022-11-16T16:35:49.920Z,21.70
2022-11-16T16:38:17.113Z,24.92
2022-11-16T16:40:43.927Z,24.60
2022-11-16T16:43:14.089Z,24.38
2022-11-16T16:45:43.911Z,26.05
2022-11-16T16:48:14.449Z,19.80
2022-11-16T16:50:41.205Z,21.42
2022-11-16T16:53:11.568Z,20.67
2022-11-16T16:55:38.553Z,19.10
2022-11-16T16:58:05.864Z,21.98
2022-11-16T17:00:33.026Z,21.58
2022-11-16T17:02:59.736Z,20.17
2022-11-16T17:05:26.685Z,20.05
2022-11-16T17:07:56.782Z,19.77
2022-11-16T17:10:24.164Z,21.98
2022-11-16T17:12:54.115Z,18.73
2022-11-16T17:15:21.087Z,21.85
2022-11-16T17:17:48.580Z,19.30
2022-11-16T17:20:16.465Z,19.92
2022-11-16T17:22:45.709Z,20.17
2022-11-16T17:25:12.511Z,19.00
2022-11-16T17:27:39.684Z,22.10
2022-11-16T17:30:07.654Z,18.48
2022-11-16T17:32:34.525Z,18.40
2022-11-16T17:35:02.388Z,26.48
2022-11-16T17:37:29.261Z,20.13
2022-11-16T17:39:56.072Z,22.77
2022-11-16T17:42:22.840Z,30.05
2022-11-16T17:44:50.040Z,21.02
2022-11-16T17:47:16.869Z,19.98
2022-11-16T17:49:43.921Z,19.92
2022-11-16T17:52:11.162Z,20.15
2022-11-16T17:54:38.121Z,19.48
2022-11-16T17:57:04.965Z,18.88
2022-11-16T17:59:31.838Z,21.17
2022-11-16T18:01:58.927Z,18.08
2022-11-16T18:04:25.772Z,18.67
2022-11-16T18:06:52.711Z,18.63
2022-11-16T18:09:19.659Z,16.40
2022-11-16T18:11:46.507Z,15.75
2022-11-16T18:14:13.872Z,17.67
2022-11-16T18:16:43.345Z,15.60
2022-11-16T18:19:16.192Z,16.77
2022-11-16T18:21:43.134Z,17.35
2022-11-16T18:24:17.017Z,15.50
2022-11-16T18:26:45.840Z,15.80
2022-11-16T18:29:15.970Z,14.95
2022-11-16T18:31:43.106Z,17.58
2022-11-16T18:34:12.477Z,14.13
2022-11-16T18:36:39.245Z,16.58
2022-11-16T18:39:07.297Z,14.88
2022-11-16T18:41:34.658Z,18.20
2022-11-16T18:44:02.041Z,13.05
2022-11-16T18:46:31.090Z,15.05
2022-11-16T18:48:58.493Z,14.02
2022-11-16T18:51:27.385Z,13.40
2022-11-16T18:53:54.731Z,14.30
2022-11-16T18:56:22.286Z,12.07
2022-11-16T18:58:51.426Z,14.75
2022-11-16T19:01:22.098Z,13.27
2022-11-16T19:03:50.003Z,13.52
2022-11-16T19:06:18.266Z,14.82
2022-11-16T19:08:50.403Z,21.42
2022-11-16T19:11:21.922Z,59.92
2022-11-16T19:13:52.985Z,27.77
2022-11-16T19:16:19.998Z,17.85
2022-11-16T19:18:46.854Z,15.73
2022-11-16T19:21:15.459Z,15.15
2022-11-16T19:23:44.565Z,12.55
2022-11-16T19:26:13.591Z,13.95
2022-11-16T19:28:42.695Z,13.10
2022-11-16T19:31:18.841Z,13.90
2022-11-16T19:33:45.940Z,14.07
2022-11-16T19:36:15.371Z,13.90
2022-11-16T19:38:43.150Z,14.77
2022-11-16T19:41:11.592Z,11.70
2022-11-16T19:43:38.948Z,11.73
2022-11-16T19:46:11.190Z,13.90
2022-11-16T19:48:38.965Z,12.48
2022-11-16T19:51:10.881Z,13.30
2022-11-16T19:53:39.999Z,13.65
2022-11-16T19:56:09.400Z,13.68
2022-11-16T19:58:38.416Z,11.23
2022-11-16T20:01:08.445Z,17.48
2022-11-16T20:03:38.480Z,14.32
2022-11-16T20:06:13.798Z,13.07
2022-11-16T20:08:42.342Z,12.75
2022-11-16T20:11:16.649Z,13.48
2022-11-16T20:13:43.939Z,11.77
2022-11-16T20:16:12.276Z,11.20
2022-11-16T20:18:40.597Z,12.20
2022-11-16T20:21:08.885Z,12.43
2022-11-16T20:23:36.341Z,24.42
2022-11-16T20:26:08.275Z,14.35
2022-11-16T20:28:37.081Z,11.65
2022-11-16T20:31:07.388Z,10.68
2022-11-16T20:33:35.086Z,10.85
2022-11-16T20:36:11.816Z,12.68
2022-11-16T20:38:39.401Z,11.10
2022-11-16T20:41:14.332Z,13.75
2022-11-16T20:43:42.396Z,12.35
2022-11-16T20:46:10.349Z,14.07
2022-11-16T20:48:38.433Z,18.77
2022-11-16T20:51:06.022Z,16.35
2022-11-16T20:53:33.463Z,14.18
2022-11-16T20:56:03.962Z,12.20
2022-11-16T20:58:31.749Z,10.70
2022-11-16T21:01:10.342Z,11.07
2022-11-16T21:03:37.771Z,9.88
2022-11-16T21:06:08.941Z,10.55
2022-11-16T21:08:36.799Z,10.20
2022-11-16T21:11:10.341Z,14.48
2022-11-16T21:13:55.918Z,11.73
2022-11-16T21:16:22.738Z,10.40
2022-11-16T21:18:49.766Z,10.65
2022-11-16T21:21:16.688Z,10.63
2022-11-16T21:23:47.442Z,9.98
2022-11-16T21:26:15.332Z,10.10
2022-11-16T21:28:44.907Z,9.55
2022-11-16T21:31:16.877Z,10.68
2022-11-16T21:33:47.663Z,11.00
2022-11-16T21:36:22.604Z,9.15
2022-11-16T21:38:49.843Z,11.93
2022-11-16T21:41:18.160Z,12.07
2022-11-16T21:43:45.289Z,9.43
2022-11-16T21:46:17.124Z,12.80
2022-11-16T21:48:44.641Z,10.52
2022-11-16T21:51:16.957Z,11.05
2022-11-16T21:53:44.440Z,18.58
2022-11-16T21:56:20.218Z,10.40
2022-11-16T21:58:47.753Z,11.35
2022-11-16T22:01:16.389Z,10.98
2022-11-16T22:03:43.479Z,9.70
2022-11-16T22:06:32.456Z,10.13
2022-11-16T22:08:59.459Z,10.15
2022-11-16T22:11:26.786Z,10.48
2022-11-16T22:13:53.636Z,10.68
2022-11-16T22:16:21.554Z,9.50
2022-11-16T22:18:48.311Z,9.38
2022-11-16T22:21:15.120Z,10.75
2022-11-16T22:23:42.076Z,11.32
2022-11-16T22:26:11.286Z,12.18
2022-11-16T22:28:38.718Z,11.02
2022-11-16T22:31:07.841Z,11.07
2022-11-16T22:33:35.070Z,11.43
2022-11-16T22:36:03.826Z,10.45
2022-11-16T22:38:31.253Z,9.90
2022-11-16T22:40:58.346Z,10.02
2022-11-16T22:43:27.600Z,9.52
2022-11-16T22:45:59.121Z,10.68
2022-11-16T22:48:33.330Z,11.25
2022-11-16T22:51:11.361Z,11.07
2022-11-16T22:53:38.553Z,9.25
2022-11-16T22:56:07.068Z,9.98
2022-11-16T22:58:34.679Z,10.60
2022-11-16T23:01:01.886Z,8.20
2022-11-16T23:03:29.528Z,11.85
2022-11-16T23:05:56.385Z,10.40
2022-11-16T23:08:25.134Z,9.82
2022-11-16T23:11:37.868Z,9.23
2022-11-16T23:14:23.948Z,9.20
2022-11-16T23:16:50.934Z,8.32
2022-11-16T23:19:37.902Z,12.27
2022-11-16T23:22:23.927Z,8.30
2022-11-16T23:25:09.517Z,7.93
2022-11-16T23:27:55.942Z,8.80
2022-11-16T23:30:23.381Z,8.70
2022-11-16T23:32:50.181Z,10.07
2022-11-16T23:35:17.487Z,9.20
2022-11-16T23:37:57.127Z,10.23
2022-11-16T23:40:34.851Z,10.50
2022-11-16T23:43:20.371Z,10.02
2022-11-16T23:45:47.386Z,12.15
2022-11-16T23:48:15.599Z,10.98
2022-11-16T23:50:43.007Z,13.52
2022-11-16T23:53:10.420Z,12.35
2022-11-16T23:55:40.982Z,12.88
2022-11-16T23:58:12.606Z,12.50
